Sobradinho, Brazil
Current Conditions -  °F | °C
As of 3:00 PM on Thursday 30 Oct 2014 (Local Time) from SBSM Reporting Station
Overcast Overcast  
Wind Chill: 68°   Ceiling: 10000
Heat Index: 68°   Visibility: 6mi
Dew Point: 64°   Wind: 13mph
Humidity: 88%   Direction: 50°NE
Pressure: 29.77"   Gusts: NA
Location:  29.42°S, 53.03°W
Report Text: SBSM 301700Z 05011KT 9999 FEW030 OVC100 20/18 Q1008 RETS
Loading
Personal Weather Stations






























Interactive Weather Map
Tropical Storm Tracking
New forecast layout! Learn more

10-Day Weather Forecast

Advertisements
Track Severe Weather on mobile